Time;durP1;ratioP1;P1;durP2;ratioP2;P2;SDS_P1;SDS_P2;PMS_P1;PMS_P2;Temp;Humidity;BMP_temperature;BMP_pressure;BME280_temperature;BME280_humidity;BME280_pressure;Samples;Min_cycle;Max_cycle;Signal;HPM_P1;HPM_P2
2021/12/08 00:00:39;;;;;;;11.03;7.23;;;1.00;99.90;;;;;;5053148;28;20634;-87
2021/12/08 00:03:08;;;;;;;14.87;8.53;;;1.10;99.90;;;;;;5053137;28;20176;-86
2021/12/08 00:05:35;;;;;;;11.60;7.40;;;1.10;99.90;;;;;;5052950;28;20194;-86
2021/12/08 00:08:01;;;;;;;8.43;7.27;;;1.10;99.90;;;;;;5053007;28;20182;-86
2021/12/08 00:13:07;;;;;;;11.63;7.33;;;1.10;99.90;;;;;;5054529;28;20165;-86
2021/12/08 00:15:36;;;;;;;12.57;6.90;;;1.00;99.90;;;;;;5053752;28;20216;-86
2021/12/08 00:18:05;;;;;;;9.97;6.17;;;1.10;99.90;;;;;;5054018;28;20292;-86
2021/12/08 00:20:32;;;;;;;9.20;6.13;;;1.00;99.90;;;;;;5053801;28;20174;-86
2021/12/08 00:22:59;;;;;;;11.83;6.70;;;1.10;99.90;;;;;;5052991;28;20174;-86
2021/12/08 00:25:25;;;;;;;11.83;5.43;;;1.00;99.90;;;;;;5052657;28;20202;-86
2021/12/08 00:27:51;;;;;;;9.17;5.27;;;1.20;99.90;;;;;;5053588;28;20181;-86
2021/12/08 00:30:17;;;;;;;7.83;5.50;;;1.20;99.90;;;;;;5052928;28;20185;-87
2021/12/08 00:32:44;;;;;;;8.13;4.60;;;1.20;99.90;;;;;;5054095;28;20183;-86
2021/12/08 00:35:11;;;;;;;6.00;4.17;;;1.30;99.90;;;;;;5053868;28;20198;-85
2021/12/08 00:37:37;;;;;;;7.30;4.73;;;1.40;99.90;;;;;;5052360;28;20184;-85
2021/12/08 00:40:08;;;;;;;6.90;4.33;;;1.50;99.90;;;;;;5052459;28;20265;-85
2021/12/08 00:42:34;;;;;;;7.87;4.53;;;1.60;99.90;;;;;;5051838;28;20205;-85
2021/12/08 00:44:59;;;;;;;8.33;4.20;;;1.70;99.90;;;;;;5052419;28;20241;-85
2021/12/08 00:47:26;;;;;;;6.60;3.77;;;1.70;99.90;;;;;;5052202;28;20225;-85
2021/12/08 00:49:52;;;;;;;7.57;3.93;;;1.80;99.90;;;;;;5052258;28;20178;-85
2021/12/08 00:52:17;;;;;;;4.87;4.03;;;1.80;99.90;;;;;;5053029;28;20184;-85
2021/12/08 00:54:43;;;;;;;8.33;4.13;;;1.90;99.90;;;;;;5052033;28;20223;-85
2021/12/08 00:57:09;;;;;;;4.80;4.03;;;1.80;99.90;;;;;;5052560;28;20194;-85
2021/12/08 00:59:36;;;;;;;7.50;4.57;;;1.90;99.90;;;;;;5052238;28;20181;-85
2021/12/08 01:02:02;;;;;;;8.40;4.73;;;1.90;99.90;;;;;;5052460;28;20200;-85
2021/12/08 01:04:30;;;;;;;6.67;4.10;;;1.90;99.90;;;;;;5052400;28;20174;-85
2021/12/08 01:06:55;;;;;;;7.07;4.50;;;1.90;99.90;;;;;;5052100;28;20704;-85
2021/12/08 01:09:21;;;;;;;5.63;3.93;;;1.80;99.90;;;;;;5052137;28;20174;-85
2021/12/08 01:11:48;;;;;;;11.07;4.17;;;1.80;99.90;;;;;;5052027;28;20206;-85
2021/12/08 01:14:14;;;;;;;6.37;4.10;;;1.80;99.90;;;;;;5052410;28;20182;-85
2021/12/08 01:16:40;;;;;;;9.37;4.27;;;1.80;99.90;;;;;;5051879;28;20220;-85
2021/12/08 01:19:06;;;;;;;7.40;4.00;;;1.70;99.90;;;;;;5052444;28;20170;-85
2021/12/08 01:21:31;;;;;;;8.23;4.87;;;1.70;99.90;;;;;;5054419;28;20190;-85
2021/12/08 01:23:57;;;;;;;5.07;3.57;;;1.70;99.90;;;;;;5054376;28;20174;-85
2021/12/08 01:26:22;;;;;;;6.07;3.97;;;1.70;99.90;;;;;;5053853;28;20588;-85
2021/12/08 01:28:51;;;;;;;4.63;3.50;;;1.70;99.90;;;;;;5054188;28;20178;-85
2021/12/08 01:31:17;;;;;;;8.73;4.43;;;1.70;99.90;;;;;;5053758;28;20209;-85
2021/12/08 01:33:42;;;;;;;6.30;4.87;;;1.60;99.90;;;;;;5054679;28;20186;-85
2021/12/08 01:36:08;;;;;;;7.17;4.13;;;1.70;99.90;;;;;;5056015;28;20220;-85
2021/12/08 01:38:34;;;;;;;9.40;5.33;;;1.60;99.90;;;;;;5055516;28;20213;-85
2021/12/08 01:41:00;;;;;;;9.13;5.00;;;1.60;99.90;;;;;;5055476;28;20178;-85
2021/12/08 01:43:28;;;;;;;8.07;5.10;;;1.50;99.90;;;;;;5055362;28;20177;-85
2021/12/08 01:46:06;;;;;;;8.67;5.40;;;1.50;99.90;;;;;;5055794;28;20187;-85
2021/12/08 01:48:35;;;;;;;10.20;5.33;;;1.60;99.90;;;;;;5054589;28;20186;-85
2021/12/08 01:51:05;;;;;;;6.83;5.13;;;1.70;99.90;;;;;;5054763;28;20178;-85
2021/12/08 01:53:32;;;;;;;7.77;5.20;;;1.70;99.90;;;;;;5055125;28;20281;-85
2021/12/08 01:55:58;;;;;;;9.13;5.80;;;1.70;99.90;;;;;;5058962;28;20264;-85
2021/12/08 01:58:25;;;;;;;7.37;5.57;;;1.70;99.90;;;;;;5058514;28;20582;-85
2021/12/08 02:00:55;;;;;;;8.80;5.40;;;1.70;99.90;;;;;;5058356;28;20186;-85
2021/12/08 02:03:22;;;;;;;7.53;5.10;;;1.70;99.90;;;;;;5058221;28;20206;-85
2021/12/08 02:05:48;;;;;;;7.00;5.50;;;1.80;99.90;;;;;;5058487;28;20541;-85
2021/12/08 02:08:14;;;;;;;8.50;5.77;;;1.80;99.90;;;;;;5058243;28;20304;-85
2021/12/08 02:10:41;;;;;;;8.33;5.83;;;1.70;99.90;;;;;;5057991;28;20186;-85
2021/12/08 02:13:08;;;;;;;10.13;5.93;;;1.80;99.90;;;;;;5058825;28;20184;-85
2021/12/08 02:15:35;;;;;;;9.57;5.57;;;1.80;99.90;;;;;;5057622;28;20221;-85
2021/12/08 02:18:02;;;;;;;7.20;5.17;;;1.80;99.90;;;;;;5058541;28;20663;-85
2021/12/08 02:20:29;;;;;;;7.93;5.33;;;1.90;99.90;;;;;;5058052;28;20273;-85
2021/12/08 02:22:55;;;;;;;7.83;5.23;;;1.90;99.90;;;;;;5057340;28;20173;-85
2021/12/08 02:25:24;;;;;;;7.93;5.30;;;1.90;99.90;;;;;;5057224;28;20269;-85
2021/12/08 02:27:53;;;;;;;8.07;5.60;;;2.00;99.90;;;;;;5057414;28;20182;-85
2021/12/08 02:31:05;;;;;;;8.40;5.73;;;2.00;99.90;;;;;;5056743;28;20217;-85
2021/12/08 02:49:24;;;;;;;11.77;5.43;;;2.00;99.90;;;;;;5058118;28;20186;-85
2021/12/08 02:51:51;;;;;;;6.50;5.63;;;2.10;99.90;;;;;;5056868;28;20189;-85
2021/12/08 02:54:19;;;;;;;10.13;5.77;;;2.00;99.90;;;;;;5057518;28;20194;-85
2021/12/08 02:56:45;;;;;;;7.83;5.70;;;2.00;99.90;;;;;;5055987;28;20214;-85
2021/12/08 02:59:11;;;;;;;7.90;6.07;;;2.10;99.90;;;;;;5055967;28;20178;-85
2021/12/08 03:01:37;;;;;;;7.73;5.07;;;2.10;99.90;;;;;;5056068;28;20190;-85
2021/12/08 03:04:05;;;;;;;7.53;5.30;;;2.00;99.90;;;;;;5055446;28;20190;-85
2021/12/08 03:06:31;;;;;;;8.37;5.40;;;2.10;99.90;;;;;;5055816;28;20213;-85
2021/12/08 03:08:57;;;;;;;8.53;5.00;;;2.10;99.90;;;;;;5055944;28;20178;-85
2021/12/08 03:11:24;;;;;;;7.60;4.70;;;2.20;99.90;;;;;;5056079;28;20188;-85
2021/12/08 03:14:11;;;;;;;7.83;5.63;;;2.20;99.90;;;;;;5055696;28;20182;-85
2021/12/08 03:16:41;;;;;;;8.10;4.93;;;2.30;99.90;;;;;;5057054;28;20209;-85
2021/12/08 03:19:07;;;;;;;7.33;4.53;;;2.30;99.90;;;;;;5056024;28;20170;-85
2021/12/08 03:21:33;;;;;;;9.33;4.87;;;2.30;99.90;;;;;;5055502;28;20197;-85
2021/12/08 03:26:46;;;;;;;9.20;4.80;;;2.30;99.90;;;;;;5057007;28;20197;-85
2021/12/08 03:29:24;;;;;;;8.47;4.93;;;2.30;99.90;;;;;;5055076;28;20181;-85
2021/12/08 03:31:53;;;;;;;5.33;4.20;;;2.30;99.90;;;;;;5055024;28;20663;-85
2021/12/08 03:34:21;;;;;;;6.43;4.60;;;2.30;99.90;;;;;;5055188;28;20190;-85
2021/12/08 03:36:47;;;;;;;5.53;4.93;;;2.30;99.90;;;;;;5056242;28;20247;-85
2021/12/08 03:39:13;;;;;;;6.60;4.50;;;2.40;99.90;;;;;;5054796;28;20170;-85
2021/12/08 03:41:39;;;;;;;5.87;4.50;;;2.40;99.90;;;;;;5055094;28;20248;-85
2021/12/08 03:44:05;;;;;;;10.47;5.03;;;2.40;99.90;;;;;;5054825;28;20214;-85
2021/12/08 03:46:38;;;;;;;8.90;5.17;;;2.40;99.90;;;;;;5055574;28;20200;-85
2021/12/08 03:49:06;;;;;;;7.37;5.47;;;2.40;99.90;;;;;;5054705;28;20265;-85
2021/12/08 03:51:32;;;;;;;6.17;4.90;;;2.50;99.90;;;;;;5054683;28;20182;-85
2021/12/08 03:53:57;;;;;;;5.87;4.60;;;2.50;99.90;;;;;;5054474;28;20277;-85
2021/12/08 03:56:23;;;;;;;6.53;4.30;;;2.40;99.90;;;;;;5054936;28;20242;-85
2021/12/08 03:58:48;;;;;;;9.50;4.90;;;2.40;99.90;;;;;;5054399;28;20170;-85
2021/12/08 04:01:14;;;;;;;8.43;5.10;;;2.40;99.90;;;;;;5054508;28;20170;-85
2021/12/08 04:03:48;;;;;;;6.43;4.93;;;2.40;99.90;;;;;;5054532;28;20194;-85
2021/12/08 04:06:26;;;;;;;11.93;4.80;;;2.40;99.90;;;;;;5054207;28;20206;-85
2021/12/08 04:08:56;;;;;;;5.87;4.80;;;2.40;99.90;;;;;;5053948;28;20175;-85
2021/12/08 04:11:22;;;;;;;8.07;4.70;;;2.40;99.90;;;;;;5054417;28;20189;-85
2021/12/08 04:13:56;;;;;;;9.83;4.83;;;2.50;99.90;;;;;;5054121;28;20182;-85
2021/12/08 04:16:27;;;;;;;7.13;4.90;;;2.40;99.90;;;;;;5054115;28;20217;-85
2021/12/08 04:18:53;;;;;;;7.13;4.77;;;2.40;99.90;;;;;;5054082;28;20166;-85
2021/12/08 04:21:19;;;;;;;7.33;4.57;;;2.40;99.90;;;;;;5053735;28;20174;-85
2021/12/08 04:23:46;;;;;;;9.27;4.87;;;2.40;99.90;;;;;;5053478;28;20178;-85
2021/12/08 04:26:34;;;;;;;8.00;4.73;;;2.40;99.90;;;;;;5055231;28;20198;-85
2021/12/08 04:29:00;;;;;;;6.57;4.93;;;2.40;99.90;;;;;;5053138;28;20268;-85
2021/12/08 04:31:29;;;;;;;8.27;5.23;;;2.30;99.90;;;;;;5053941;28;20178;-85
2021/12/08 04:34:01;;;;;;;6.13;4.90;;;2.40;99.90;;;;;;5053322;28;20182;-85
2021/12/08 04:36:37;;;;;;;8.00;5.20;;;2.40;99.90;;;;;;5053528;28;20213;-85
2021/12/08 04:39:09;;;;;;;6.50;5.30;;;2.40;99.90;;;;;;5054272;28;20170;-85
2021/12/08 04:41:40;;;;;;;6.70;5.00;;;2.40;99.90;;;;;;5053473;28;20166;-85
2021/12/08 04:44:21;;;;;;;5.57;4.80;;;2.40;99.90;;;;;;5054087;28;20220;-85
2021/12/08 04:47:19;;;;;;;7.63;5.13;;;2.40;99.90;;;;;;5054774;28;20194;-85
2021/12/08 04:52:52;;;;;;;7.43;5.17;;;2.40;99.90;;;;;;5055078;28;20701;-85
2021/12/08 05:04:23;;;;;;;9.80;5.67;;;2.20;99.90;;;;;;5054471;28;20158;-85
2021/12/08 05:06:45;;;;;;;7.47;5.53;;;2.30;99.90;;;;;;5053495;28;20332;-85
2021/12/08 05:09:24;;;;;;;8.67;5.60;;;2.30;99.90;;;;;;5053183;28;20166;-84
2021/12/08 05:12:01;;;;;;;7.13;5.37;;;2.20;99.90;;;;;;5052200;28;20260;-84
2021/12/08 05:14:38;;;;;;;7.40;5.33;;;2.20;99.90;;;;;;5053084;28;20178;-84
2021/12/08 05:17:24;;;;;;;7.67;5.37;;;2.20;99.90;;;;;;5052540;28;20205;-84
2021/12/08 05:19:55;;;;;;;6.70;5.00;;;2.30;99.90;;;;;;5052469;28;20173;-86
2021/12/08 05:22:34;;;;;;;8.73;5.47;;;2.20;99.90;;;;;;5050903;28;20183;-80
2021/12/08 05:25:04;;;;;;;6.60;5.23;;;2.20;99.90;;;;;;5050738;28;20177;-85
2021/12/08 05:27:39;;;;;;;5.20;4.70;;;2.20;99.90;;;;;;5052179;28;20213;-85
2021/12/08 05:30:18;;;;;;;7.47;5.23;;;2.20;99.90;;;;;;5055313;28;20166;-85
2021/12/08 05:32:45;;;;;;;6.90;5.20;;;2.20;99.90;;;;;;5056483;28;20170;-85
2021/12/08 05:35:13;;;;;;;10.27;5.50;;;2.10;99.90;;;;;;5055355;28;20229;-85
2021/12/08 05:37:40;;;;;;;8.60;5.13;;;2.10;99.90;;;;;;5055628;28;20181;-84
2021/12/08 05:40:11;;;;;;;8.73;5.40;;;2.10;99.90;;;;;;5056010;28;20646;-83
2021/12/08 05:42:37;;;;;;;5.73;4.70;;;2.20;99.90;;;;;;5056531;28;20224;-83
2021/12/08 05:45:09;;;;;;;9.03;5.03;;;2.20;99.90;;;;;;5056116;28;20174;-84
2021/12/08 05:47:35;;;;;;;7.40;5.60;;;2.20;99.90;;;;;;5055958;28;20178;-84
2021/12/08 05:50:28;;;;;;;8.67;5.00;;;2.20;99.90;;;;;;5055970;28;20189;-85
2021/12/08 05:52:54;;;;;;;7.73;5.03;;;2.20;99.90;;;;;;5056768;28;20177;-84
2021/12/08 05:55:21;;;;;;;8.20;5.10;;;2.10;99.90;;;;;;5055867;28;20210;-85
2021/12/08 05:57:47;;;;;;;7.63;5.80;;;2.10;99.90;;;;;;5056539;28;20272;-85
2021/12/08 06:00:19;;;;;;;7.63;5.80;;;2.20;99.90;;;;;;5055708;28;20221;-84
2021/12/08 06:02:45;;;;;;;7.73;4.90;;;2.10;99.90;;;;;;5055736;28;20179;-84
2021/12/08 06:05:12;;;;;;;6.47;4.93;;;2.20;99.90;;;;;;5056057;28;20182;-84
2021/12/08 06:07:42;;;;;;;6.83;5.33;;;2.10;99.90;;;;;;5055424;28;20186;-84
2021/12/08 06:10:17;;;;;;;8.40;5.40;;;2.00;99.90;;;;;;5056164;28;20178;-84
2021/12/08 06:12:50;;;;;;;7.97;5.33;;;2.10;99.90;;;;;;5056518;28;20166;-86
2021/12/08 06:15:18;;;;;;;5.57;4.90;;;2.20;99.90;;;;;;5055018;28;20237;-86
2021/12/08 06:17:44;;;;;;;6.53;4.73;;;2.20;99.90;;;;;;5055660;28;20197;-86
2021/12/08 06:20:11;;;;;;;6.07;4.87;;;2.30;99.90;;;;;;5055026;28;20174;-86
2021/12/08 06:22:38;;;;;;;8.07;4.97;;;2.30;99.90;;;;;;5055100;28;20185;-86
2021/12/08 06:25:06;;;;;;;7.60;4.73;;;2.30;99.90;;;;;;5055780;28;20182;-86
2021/12/08 06:27:32;;;;;;;6.43;4.73;;;2.30;99.90;;;;;;5055473;28;20260;-86
2021/12/08 06:29:59;;;;;;;7.90;5.37;;;2.30;99.90;;;;;;5054929;28;20240;-87
2021/12/08 06:32:24;;;;;;;6.30;5.37;;;2.30;99.90;;;;;;5054782;28;20182;-86
2021/12/08 06:34:54;;;;;;;7.83;4.77;;;2.20;99.90;;;;;;5055785;28;20185;-86
2021/12/08 06:37:26;;;;;;;9.00;5.33;;;2.20;99.90;;;;;;5055066;28;20190;-85
2021/12/08 06:40:13;;;;;;;6.03;4.67;;;2.20;99.90;;;;;;5053951;28;20171;-85
2021/12/08 06:42:41;;;;;;;7.23;4.57;;;2.10;99.90;;;;;;5055121;28;20625;-85
2021/12/08 06:45:15;;;;;;;7.47;5.20;;;2.20;99.90;;;;;;5054805;28;20182;-86
2021/12/08 06:47:42;;;;;;;8.00;4.53;;;2.20;99.90;;;;;;5054202;28;20178;-86
2021/12/08 06:50:17;;;;;;;5.07;4.47;;;2.20;99.90;;;;;;5053866;28;20181;-86
2021/12/08 06:52:43;;;;;;;7.53;5.50;;;2.30;99.90;;;;;;5054590;28;20177;-86
2021/12/08 06:55:20;;;;;;;5.23;4.63;;;2.30;99.90;;;;;;5054026;28;20214;-86
2021/12/08 06:57:51;;;;;;;5.37;4.67;;;2.30;99.90;;;;;;5054418;28;20201;-86
2021/12/08 07:00:46;;;;;;;8.40;5.50;;;2.20;99.90;;;;;;5055674;28;20185;-86
2021/12/08 07:06:10;;;;;;;6.53;5.17;;;2.20;99.90;;;;;;5055717;28;20223;-86
2021/12/08 07:08:39;;;;;;;5.57;4.60;;;2.30;99.90;;;;;;5055035;28;20185;-86
2021/12/08 07:11:06;;;;;;;6.63;4.67;;;2.40;99.90;;;;;;5054992;28;20277;-86
2021/12/08 07:13:34;;;;;;;5.33;4.60;;;2.40;99.90;;;;;;5054068;28;20259;-86
2021/12/08 07:16:08;;;;;;;5.00;4.50;;;2.30;99.90;;;;;;5053764;28;20206;-87
2021/12/08 07:18:52;;;;;;;6.03;4.50;;;2.40;99.90;;;;;;5054011;28;20189;-86
2021/12/08 07:21:22;;;;;;;7.10;4.90;;;2.30;99.90;;;;;;5054793;28;20303;-86
2021/12/08 07:24:02;;;;;;;6.23;4.77;;;2.20;99.90;;;;;;5054270;28;20178;-86
2021/12/08 07:26:30;;;;;;;6.03;4.33;;;2.30;99.90;;;;;;5053959;28;20205;-86
2021/12/08 07:28:57;;;;;;;5.67;4.77;;;2.30;99.90;;;;;;5054893;28;20533;-86
2021/12/08 07:31:42;;;;;;;5.60;4.87;;;2.30;99.90;;;;;;5054245;28;20182;-86
2021/12/08 07:34:15;;;;;;;7.67;5.10;;;2.30;99.90;;;;;;5054422;28;20205;-86
2021/12/08 07:36:43;;;;;;;8.80;5.47;;;2.40;99.90;;;;;;5054666;28;20241;-86
2021/12/08 07:39:17;;;;;;;7.83;5.63;;;2.40;99.90;;;;;;5054048;28;20171;-86
2021/12/08 07:41:49;;;;;;;9.60;5.40;;;2.30;99.90;;;;;;5054112;28;20174;-86
2021/12/08 07:44:16;;;;;;;6.17;5.57;;;2.30;99.90;;;;;;5054038;28;20219;-86
2021/12/08 07:46:48;;;;;;;6.23;5.20;;;2.30;99.90;;;;;;5053866;28;20198;-85
2021/12/08 07:49:28;;;;;;;8.53;5.87;;;2.30;99.90;;;;;;5054849;28;20204;-85
2021/12/08 07:52:08;;;;;;;11.27;5.87;;;2.20;99.90;;;;;;5054917;28;20574;-85
2021/12/08 07:54:36;;;;;;;7.77;5.50;;;2.40;99.90;;;;;;5054249;28;20201;-85
2021/12/08 07:57:06;;;;;;;6.70;5.57;;;2.40;99.90;;;;;;5053722;28;20296;-85
2021/12/08 07:59:33;;;;;;;7.97;5.60;;;2.40;99.90;;;;;;5055531;28;20178;-85
2021/12/08 08:02:06;;;;;;;9.27;6.70;;;2.50;99.90;;;;;;5053922;28;20264;-84
2021/12/08 08:04:34;;;;;;;11.67;8.93;;;2.50;99.90;;;;;;5053845;28;20663;-84
2021/12/08 08:07:00;;;;;;;9.17;6.90;;;2.50;99.90;;;;;;5053699;28;20198;-84
2021/12/08 08:09:36;;;;;;;12.87;9.03;;;2.60;99.90;;;;;;5054198;28;20189;-84
2021/12/08 08:12:04;;;;;;;7.33;6.07;;;2.50;99.90;;;;;;5054292;28;20174;-84
2021/12/08 08:14:43;;;;;;;13.60;10.43;;;2.60;99.90;;;;;;5053799;28;20672;-84
2021/12/08 08:17:17;;;;;;;9.77;8.03;;;2.60;99.90;;;;;;5053311;28;20301;-84
2021/12/08 08:19:46;;;;;;;10.90;7.40;;;2.60;99.90;;;;;;5054068;28;20253;-84
2021/12/08 08:22:17;;;;;;;8.57;6.73;;;2.60;99.90;;;;;;5052681;28;20174;-86
2021/12/08 08:24:43;;;;;;;10.07;8.27;;;2.60;99.90;;;;;;5053971;28;20159;-84
2021/12/08 08:27:10;;;;;;;14.17;7.97;;;2.50;99.90;;;;;;5052667;28;20319;-84
2021/12/08 08:29:37;;;;;;;10.73;8.33;;;2.50;99.90;;;;;;5053504;28;20185;-84
2021/12/08 08:32:10;;;;;;;10.67;7.93;;;2.40;99.90;;;;;;5052549;28;20170;-84
2021/12/08 08:34:40;;;;;;;12.40;8.83;;;2.40;99.90;;;;;;5052554;28;20215;-84
2021/12/08 08:37:10;;;;;;;11.33;9.53;;;2.40;99.90;;;;;;5053144;28;20569;-85
2021/12/08 08:39:40;;;;;;;14.77;11.93;;;2.50;99.90;;;;;;5052795;28;20182;-85
2021/12/08 08:42:09;;;;;;;9.33;6.50;;;2.50;99.90;;;;;;5053360;28;20203;-85
2021/12/08 08:44:42;;;;;;;14.37;9.67;;;2.50;99.90;;;;;;5052484;28;20178;-86
2021/12/08 08:47:14;;;;;;;14.97;8.60;;;2.40;99.90;;;;;;5052619;28;20547;-84
2021/12/08 08:49:41;;;;;;;14.10;9.53;;;2.60;99.90;;;;;;5052460;28;20224;-83
2021/12/08 08:52:31;;;;;;;11.80;9.37;;;2.60;99.90;;;;;;5053230;28;20175;-83
2021/12/08 08:55:00;;;;;;;11.83;9.13;;;2.60;99.90;;;;;;5051612;28;20281;-86
2021/12/08 08:57:34;;;;;;;10.40;7.50;;;2.60;99.90;;;;;;5052241;28;20202;-86
2021/12/08 09:00:09;;;;;;;16.27;12.73;;;2.50;99.90;;;;;;5052325;28;20625;-85
2021/12/08 09:02:38;;;;;;;12.60;9.10;;;2.50;99.90;;;;;;5052711;28;20178;-85
2021/12/08 09:05:13;;;;;;;14.30;8.97;;;2.40;99.90;;;;;;5053398;28;20246;-85
2021/12/08 09:07:43;;;;;;;9.13;7.47;;;2.50;99.90;;;;;;5053118;28;20205;-86
2021/12/08 09:10:25;;;;;;;10.10;7.80;;;2.50;99.90;;;;;;5052384;28;20633;-85
2021/12/08 09:12:58;;;;;;;11.33;9.13;;;2.60;99.90;;;;;;5052240;28;20166;-86
2021/12/08 09:15:33;;;;;;;9.60;7.20;;;2.60;99.90;;;;;;5053018;28;20260;-86
2021/12/08 09:18:05;;;;;;;13.33;7.63;;;2.50;99.90;;;;;;5052832;28;20166;-83
2021/12/08 09:24:26;;;;;;;12.33;7.53;;;2.40;99.90;;;;;;5053191;28;20173;-83
2021/12/08 09:27:21;;;;;;;15.47;13.77;;;2.50;99.90;;;;;;5052083;28;20202;-85
2021/12/08 09:30:32;;;;;;;23.70;15.60;;;2.60;99.90;;;;;;5053239;28;20186;-85
2021/12/08 09:33:05;;;;;;;11.77;8.73;;;2.60;99.90;;;;;;5052182;28;20257;-86
2021/12/08 09:35:46;;;;;;;12.90;8.93;;;2.70;99.90;;;;;;5055328;28;20214;-84
2021/12/08 09:38:31;;;;;;;9.30;8.37;;;2.70;99.90;;;;;;5055745;28;20162;-85
2021/12/08 09:41:10;;;;;;;11.63;10.30;;;2.80;99.90;;;;;;5055899;28;20162;-85
2021/12/08 09:43:41;;;;;;;11.47;8.90;;;2.70;99.90;;;;;;5055270;28;20617;-86
2021/12/08 09:46:18;;;;;;;9.43;6.97;;;2.80;99.90;;;;;;5055778;28;20202;-85
2021/12/08 09:48:59;;;;;;;12.60;10.30;;;2.80;99.90;;;;;;5055527;28;20174;-85
2021/12/08 09:51:43;;;;;;;13.27;8.40;;;2.80;99.90;;;;;;5053745;28;20201;-85
2021/12/08 09:54:09;;;;;;;12.50;8.20;;;2.80;99.90;;;;;;5054786;28;20198;-83
2021/12/08 09:56:34;;;;;;;13.53;8.20;;;2.90;99.90;;;;;;5056023;28;20309;-83
2021/12/08 09:59:04;;;;;;;11.23;8.17;;;2.80;99.90;;;;;;5054781;28;20185;-85
2021/12/08 10:01:30;;;;;;;10.13;7.87;;;2.70;99.90;;;;;;5054399;28;20174;-84
2021/12/08 10:03:56;;;;;;;16.10;10.67;;;2.80;99.90;;;;;;5053815;28;20178;-83
2021/12/08 10:06:24;;;;;;;13.90;10.00;;;2.80;99.90;;;;;;5054223;28;20289;-83
2021/12/08 10:08:51;;;;;;;10.07;7.90;;;2.90;99.90;;;;;;5053206;28;20182;-83
2021/12/08 10:11:18;;;;;;;9.23;8.23;;;2.70;99.90;;;;;;5053673;28;20183;-85
2021/12/08 10:13:45;;;;;;;11.63;8.00;;;2.60;99.90;;;;;;5053190;28;20174;-85
2021/12/08 10:16:15;;;;;;;9.67;8.20;;;2.70;99.90;;;;;;5056669;28;20300;-86
2021/12/08 10:18:43;;;;;;;10.67;8.27;;;2.80;99.90;;;;;;5056388;28;20166;-85
2021/12/08 10:21:10;;;;;;;12.53;8.63;;;3.00;99.90;;;;;;5056678;28;20661;-85
2021/12/08 10:23:45;;;;;;;9.10;8.10;;;3.00;99.90;;;;;;5056597;28;20177;-84
2021/12/08 10:26:16;;;;;;;8.43;7.10;;;3.20;99.90;;;;;;5055566;28;20220;-84
2021/12/08 10:28:55;;;;;;;9.20;7.90;;;3.20;99.90;;;;;;5056908;28;20216;-84
2021/12/08 10:31:29;;;;;;;10.63;7.90;;;3.30;99.90;;;;;;5056020;28;20174;-84
2021/12/08 10:37:19;;;;;;;9.37;7.63;;;3.30;99.90;;;;;;5056270;28;20213;-84
2021/12/08 10:39:47;;;;;;;11.10;7.83;;;3.30;99.90;;;;;;5056050;28;20239;-84
2021/12/08 10:45:35;;;;;;;11.67;8.00;;;3.50;99.90;;;;;;5056214;28;20248;-84
2021/12/08 10:48:01;;;;;;;10.13;7.47;;;3.60;99.90;;;;;;5055766;28;20594;-85
2021/12/08 10:56:04;;;;;;;9.60;7.57;;;3.40;99.90;;;;;;5056607;28;20224;-82
2021/12/08 10:58:32;;;;;;;9.97;7.67;;;3.40;99.90;;;;;;5055954;28;20189;-85
2021/12/08 11:01:12;;;;;;;10.20;7.77;;;3.30;99.90;;;;;;5055842;28;20186;-85
2021/12/08 11:03:39;;;;;;;12.93;8.60;;;3.20;99.90;;;;;;5056106;28;20176;-83
2021/12/08 11:06:09;;;;;;;12.80;8.37;;;3.10;99.90;;;;;;5056874;28;20616;-84
2021/12/08 11:08:40;;;;;;;13.10;8.87;;;3.30;99.90;;;;;;5055889;28;20170;-85
2021/12/08 11:11:12;;;;;;;11.27;8.57;;;3.30;99.90;;;;;;5055430;28;20186;-84
2021/12/08 11:13:44;;;;;;;9.13;7.97;;;3.40;99.90;;;;;;5056013;28;20174;-84
2021/12/08 11:16:24;;;;;;;11.87;8.60;;;3.40;99.90;;;;;;5055385;28;20214;-84
2021/12/08 11:19:18;;;;;;;10.23;8.33;;;3.40;99.90;;;;;;5054717;28;20171;-85
2021/12/08 11:21:56;;;;;;;11.37;7.80;;;3.50;99.90;;;;;;5050024;28;20190;-85
2021/12/08 11:24:33;;;;;;;12.33;8.60;;;3.50;99.90;;;;;;5055128;28;20166;-85
2021/12/08 11:27:08;;;;;;;11.73;7.97;;;3.40;99.90;;;;;;5053373;28;20317;-85
2021/12/08 11:29:39;;;;;;;13.50;8.67;;;3.40;99.90;;;;;;5055386;28;20201;-84
2021/12/08 11:32:12;;;;;;;10.80;8.07;;;3.50;99.90;;;;;;5055686;28;20171;-83
2021/12/08 11:34:43;;;;;;;11.57;8.03;;;3.50;99.90;;;;;;5054336;28;20171;-85
2021/12/08 11:37:13;;;;;;;10.67;7.80;;;3.50;99.90;;;;;;5054651;28;20245;-85
2021/12/08 11:39:47;;;;;;;11.57;8.70;;;3.30;99.90;;;;;;5055132;28;20228;-84
2021/12/08 11:42:20;;;;;;;14.77;8.47;;;3.20;99.90;;;;;;5055386;28;20176;-84
2021/12/08 11:44:49;;;;;;;13.17;8.73;;;3.30;99.90;;;;;;5054562;28;20273;-85
2021/12/08 11:47:36;;;;;;;12.30;8.77;;;3.30;99.90;;;;;;5055014;28;20198;-84
2021/12/08 11:50:10;;;;;;;11.73;9.10;;;3.40;99.90;;;;;;5055054;28;20177;-84
2021/12/08 11:52:36;;;;;;;9.60;8.17;;;3.40;99.90;;;;;;5054635;28;20166;-85
2021/12/08 11:55:07;;;;;;;9.80;8.73;;;3.50;99.90;;;;;;5054341;28;20682;-84
2021/12/08 11:57:39;;;;;;;9.73;8.53;;;3.40;99.90;;;;;;5054379;28;20186;-85
2021/12/08 12:00:14;;;;;;;15.07;10.53;;;3.30;99.90;;;;;;5055620;28;20209;-86
2021/12/08 12:02:56;;;;;;;17.03;12.13;;;3.40;99.90;;;;;;5054377;28;20166;-83
2021/12/08 12:05:26;;;;;;;33.23;20.80;;;3.40;99.90;;;;;;5053581;28;20182;-84
2021/12/08 12:07:52;;;;;;;29.47;17.90;;;3.40;99.90;;;;;;5052971;28;20269;-85
2021/12/08 12:10:21;;;;;;;34.27;20.87;;;3.40;99.90;;;;;;5053294;28;20273;-84
2021/12/08 12:12:46;;;;;;;17.70;12.80;;;3.50;99.90;;;;;;5053214;28;20178;-84
2021/12/08 12:15:15;;;;;;;19.67;13.67;;;3.60;99.90;;;;;;5052405;28;20202;-85
2021/12/08 12:17:43;;;;;;;11.90;9.73;;;3.70;99.90;;;;;;5052732;28;20174;-86
2021/12/08 12:20:15;;;;;;;13.53;10.60;;;3.70;99.90;;;;;;5053102;28;20182;-86
2021/12/08 12:23:05;;;;;;;20.57;13.17;;;3.70;99.90;;;;;;5053971;28;20191;-84
2021/12/08 12:26:06;;;;;;;16.07;11.77;;;3.40;99.90;;;;;;5052709;28;20289;-84
2021/12/08 12:28:32;;;;;;;15.50;10.73;;;3.50;99.90;;;;;;5052989;28;20280;-84
2021/12/08 12:31:19;;;;;;;10.87;8.87;;;3.60;99.90;;;;;;5052635;28;20334;-84
2021/12/08 12:33:46;;;;;;;10.83;9.03;;;3.50;99.90;;;;;;5053701;28;20530;-84
2021/12/08 12:36:28;;;;;;;14.73;10.60;;;3.60;99.90;;;;;;5053296;28;20300;-82
2021/12/08 12:39:15;;;;;;;11.50;8.37;;;3.70;99.90;;;;;;5054069;28;20146;-86
2021/12/08 12:41:41;;;;;;;11.63;9.13;;;3.80;99.90;;;;;;5053342;28;20162;-85
2021/12/08 12:44:14;;;;;;;13.27;9.10;;;3.80;99.90;;;;;;5053424;28;20178;-85
2021/12/08 12:47:09;;;;;;;14.50;9.20;;;3.80;99.90;;;;;;5054374;28;20190;-84
2021/12/08 12:49:37;;;;;;;15.60;9.00;;;3.90;99.90;;;;;;5052261;28;20205;-85
2021/12/08 12:52:05;;;;;;;13.10;10.90;;;3.80;99.90;;;;;;5050573;28;20641;-84
2021/12/08 12:54:31;;;;;;;18.47;12.23;;;3.90;99.90;;;;;;5051805;28;20282;-85
2021/12/08 12:56:59;;;;;;;25.20;18.50;;;3.90;99.90;;;;;;5051689;28;20324;-85
2021/12/08 12:59:38;;;;;;;19.80;14.27;;;3.70;99.90;;;;;;5053474;28;20184;-84
2021/12/08 13:02:12;;;;;;;20.57;15.17;;;3.60;99.90;;;;;;5052115;28;20162;-85
2021/12/08 13:05:08;;;;;;;17.37;13.23;;;3.60;99.90;;;;;;5053610;28;20613;-85
2021/12/08 13:07:39;;;;;;;14.90;11.87;;;3.60;99.90;;;;;;5052888;28;20167;-84
2021/12/08 13:10:37;;;;;;;13.93;10.90;;;3.50;99.90;;;;;;5053059;28;20175;-84
2021/12/08 13:13:17;;;;;;;12.50;10.77;;;3.40;99.90;;;;;;5052181;28;20166;-84
2021/12/08 13:15:46;;;;;;;15.00;10.90;;;3.40;99.90;;;;;;5053052;28;20210;-84
2021/12/08 13:18:14;;;;;;;12.33;10.40;;;3.40;99.90;;;;;;5052011;28;20209;-85
2021/12/08 13:20:59;;;;;;;17.47;11.30;;;3.40;99.90;;;;;;5052119;28;20186;-85
2021/12/08 13:23:29;;;;;;;15.70;12.33;;;3.50;99.90;;;;;;5054008;28;20173;-85
2021/12/08 13:26:03;;;;;;;18.43;12.37;;;3.30;99.90;;;;;;5052439;28;20616;-85
2021/12/08 13:28:36;;;;;;;16.10;12.43;;;2.90;99.90;;;;;;5051839;28;20194;-85
2021/12/08 13:31:37;;;;;;;18.10;11.60;;;3.00;99.90;;;;;;5051804;28;20208;-85
2021/12/08 13:34:06;;;;;;;15.63;11.70;;;3.00;99.90;;;;;;5051989;28;20176;-85
2021/12/08 13:36:43;;;;;;;14.80;11.57;;;3.00;99.90;;;;;;5052134;28;20237;-85
2021/12/08 13:39:20;;;;;;;17.27;12.53;;;3.10;99.90;;;;;;5051760;28;20173;-86
2021/12/08 13:42:02;;;;;;;17.33;12.70;;;3.20;99.90;;;;;;5051522;28;20166;-86
2021/12/08 13:44:34;;;;;;;15.90;11.90;;;3.30;99.90;;;;;;5052139;28;20170;-85
2021/12/08 13:47:05;;;;;;;19.20;11.60;;;3.40;99.90;;;;;;5052808;28;20568;-85
2021/12/08 13:49:35;;;;;;;16.60;11.70;;;3.60;99.90;;;;;;5054509;28;20613;-84
2021/12/08 13:52:07;;;;;;;16.50;12.13;;;3.60;99.90;;;;;;5056814;28;20155;-84
2021/12/08 13:54:48;;;;;;;18.60;13.50;;;3.40;99.90;;;;;;5055867;28;20200;-85
2021/12/08 13:57:28;;;;;;;16.80;12.67;;;3.20;99.90;;;;;;5055684;28;20213;-86
2021/12/08 14:00:12;;;;;;;18.30;12.60;;;3.30;99.90;;;;;;5056248;28;20257;-86
2021/12/08 14:02:38;;;;;;;17.67;13.10;;;3.00;99.90;;;;;;5056035;28;20175;-85
2021/12/08 14:05:15;;;;;;;23.07;15.53;;;2.90;99.90;;;;;;5055427;28;20162;-84